Time;durP1;ratioP1;P1;durP2;ratioP2;P2;SDS_P1;SDS_P2;PMS_P1;PMS_P2;Temp;Humidity;BMP_temperature;BMP_pressure;BME280_temperature;BME280_humidity;BME280_pressure;Samples;Min_cycle;Max_cycle;Signal;HPM_P1;HPM_P2
2023/10/15 00:02:00;;;;;;;1.20;0.80;;;;;;;;;;5047733;28;20235;-63
2023/10/15 00:04:27;;;;;;;3.10;0.90;;;;;;;;;;5047657;28;20560;-63
2023/10/15 00:06:54;;;;;;;2.20;1.30;;;;;;;;;;5047648;28;20218;-63
2023/10/15 00:09:23;;;;;;;5.83;1.30;;;;;;;;;;5047464;28;20218;-63
2023/10/15 00:11:51;;;;;;;5.13;1.10;;;;;;;;;;5047867;28;20211;-63
2023/10/15 00:14:18;;;;;;;0.77;0.77;;;;;;;;;;5048009;28;20311;-63
2023/10/15 00:16:45;;;;;;;5.93;1.20;;;;;;;;;;5048673;28;20511;-63
2023/10/15 00:19:12;;;;;;;2.23;1.40;;;;;;;;;;5048194;28;20270;-63
2023/10/15 00:21:39;;;;;;;1.03;0.90;;;;;;;;;;5055975;28;20207;-64
2023/10/15 00:24:09;;;;;;;1.13;0.90;;;;;;;;;;5054770;28;20230;-61
2023/10/15 00:26:38;;;;;;;3.93;1.30;;;;;;;;;;5047217;28;20203;-62
2023/10/15 00:29:08;;;;;;;1.90;1.00;;;;;;;;;;5047193;28;20211;-62
2023/10/15 00:31:37;;;;;;;2.30;1.10;;;;;;;;;;5046693;28;20244;-61
2023/10/15 00:34:12;;;;;;;3.17;0.83;;;;;;;;;;5052153;28;20228;-61
2023/10/15 00:36:39;;;;;;;2.80;0.80;;;;;;;;;;5049185;28;20206;-62
2023/10/15 00:39:10;;;;;;;3.17;1.00;;;;;;;;;;5051595;28;20210;-61
2023/10/15 00:41:39;;;;;;;2.87;1.03;;;;;;;;;;5058991;28;20219;-61
2023/10/15 00:44:09;;;;;;;2.33;1.23;;;;;;;;;;5062977;28;20231;-61
2023/10/15 00:46:38;;;;;;;2.70;1.53;;;;;;;;;;5039351;28;20299;-61
2023/10/15 00:49:13;;;;;;;1.03;0.80;;;;;;;;;;5046642;28;20297;-62
2023/10/15 00:51:41;;;;;;;4.03;0.90;;;;;;;;;;5050886;28;20207;-61
2023/10/15 00:54:11;;;;;;;5.53;1.30;;;;;;;;;;5052016;28;20235;-61
2023/10/15 00:56:41;;;;;;;1.77;0.93;;;;;;;;;;5046681;28;20203;-61
2023/10/15 00:59:16;;;;;;;4.40;1.60;;;;;;;;;;5056237;28;20210;-61
2023/10/15 01:01:50;;;;;;;1.30;0.77;;;;;;;;;;5046017;28;20444;-61
2023/10/15 01:04:24;;;;;;;1.30;0.87;;;;;;;;;;5046739;28;20211;-61
2023/10/15 01:06:51;;;;;;;2.87;1.10;;;;;;;;;;5046581;28;20203;-61
2023/10/15 01:09:20;;;;;;;2.33;1.10;;;;;;;;;;5047863;28;20208;-61
2023/10/15 01:11:55;;;;;;;1.27;0.83;;;;;;;;;;5055773;28;20210;-61
2023/10/15 01:14:28;;;;;;;4.57;0.80;;;;;;;;;;5047099;28;20227;-61
2023/10/15 01:16:56;;;;;;;1.57;1.00;;;;;;;;;;5048331;28;20223;-61
2023/10/15 01:19:32;;;;;;;1.37;0.80;;;;;;;;;;5060181;28;20210;-61
2023/10/15 01:22:02;;;;;;;1.03;0.90;;;;;;;;;;5056234;28;20214;-61
2023/10/15 01:24:32;;;;;;;1.07;1.07;;;;;;;;;;5053574;28;20200;-62
2023/10/15 01:27:08;;;;;;;4.93;1.07;;;;;;;;;;5067423;28;20218;-62
2023/10/15 01:29:35;;;;;;;7.60;1.10;;;;;;;;;;5050145;28;20295;-62
2023/10/15 01:32:04;;;;;;;6.73;0.77;;;;;;;;;;5060328;28;20214;-61
2023/10/15 01:34:37;;;;;;;3.70;1.37;;;;;;;;;;5058992;28;20226;-62
2023/10/15 01:37:14;;;;;;;2.37;1.00;;;;;;;;;;5048141;28;20253;-62
2023/10/15 01:39:45;;;;;;;2.53;0.77;;;;;;;;;;5052537;28;20215;-61
2023/10/15 01:42:31;;;;;;;2.00;0.80;;;;;;;;;;5050652;28;20582;-62
2023/10/15 01:45:09;;;;;;;4.10;1.47;;;;;;;;;;5049538;28;20235;-62
2023/10/15 01:47:36;;;;;;;2.00;1.13;;;;;;;;;;5051213;28;20203;-63
2023/10/15 01:50:08;;;;;;;2.53;1.03;;;;;;;;;;5047164;28;20204;-62
2023/10/15 01:52:40;;;;;;;4.43;1.20;;;;;;;;;;5058010;28;20211;-63
2023/10/15 01:55:06;;;;;;;5.07;1.13;;;;;;;;;;5049375;28;20235;-62
2023/10/15 01:57:36;;;;;;;1.97;1.00;;;;;;;;;;5048257;28;20201;-62
2023/10/15 02:00:12;;;;;;;0.87;0.87;;;;;;;;;;5046817;28;20387;-62
2023/10/15 02:02:40;;;;;;;5.10;1.77;;;;;;;;;;5045367;28;20208;-62
2023/10/15 02:05:16;;;;;;;4.53;1.13;;;;;;;;;;5052842;28;20455;-62
2023/10/15 02:07:44;;;;;;;2.20;1.00;;;;;;;;;;5044995;28;20761;-62
2023/10/15 02:10:13;;;;;;;3.23;1.13;;;;;;;;;;5047012;28;20296;-63
2023/10/15 02:12:41;;;;;;;0.70;0.70;;;;;;;;;;5046594;28;20207;-62
2023/10/15 02:15:14;;;;;;;1.03;0.93;;;;;;;;;;5046183;28;20227;-62
2023/10/15 02:17:43;;;;;;;2.20;0.80;;;;;;;;;;5042708;28;20688;-62
2023/10/15 02:20:12;;;;;;;2.53;1.10;;;;;;;;;;5046703;28;20864;-62
2023/10/15 02:22:40;;;;;;;1.33;0.90;;;;;;;;;;5048994;28;20211;-62
2023/10/15 02:25:08;;;;;;;1.13;0.97;;;;;;;;;;5041825;28;20207;-62
2023/10/15 02:27:35;;;;;;;3.80;1.17;;;;;;;;;;5050238;28;20652;-62
2023/10/15 02:30:06;;;;;;;1.80;0.80;;;;;;;;;;5050092;28;20277;-62
2023/10/15 02:32:33;;;;;;;0.80;0.80;;;;;;;;;;5050152;28;20207;-63
2023/10/15 02:35:05;;;;;;;2.63;0.97;;;;;;;;;;5050245;28;20223;-64
2023/10/15 02:37:32;;;;;;;2.40;1.00;;;;;;;;;;5050586;28;20204;-63
2023/10/15 02:40:00;;;;;;;2.97;1.30;;;;;;;;;;5050262;28;20639;-63
2023/10/15 02:42:31;;;;;;;1.53;1.27;;;;;;;;;;5050123;28;20200;-63
2023/10/15 02:45:00;;;;;;;2.27;1.00;;;;;;;;;;5049979;28;20204;-63
2023/10/15 02:47:31;;;;;;;1.23;1.17;;;;;;;;;;5049447;28;20204;-63
2023/10/15 02:50:01;;;;;;;1.90;1.10;;;;;;;;;;5049133;28;20200;-63
2023/10/15 02:52:35;;;;;;;4.50;1.40;;;;;;;;;;5048696;28;20200;-63
2023/10/15 02:55:06;;;;;;;2.80;0.87;;;;;;;;;;5049569;28;20227;-63
2023/10/15 02:57:38;;;;;;;2.27;1.13;;;;;;;;;;5048950;28;20647;-63
2023/10/15 03:00:12;;;;;;;4.10;0.90;;;;;;;;;;5049501;28;20207;-63
2023/10/15 03:02:44;;;;;;;0.90;0.90;;;;;;;;;;5049939;28;20210;-63
2023/10/15 03:05:14;;;;;;;1.03;0.93;;;;;;;;;;5049226;28;20204;-63
2023/10/15 03:07:43;;;;;;;2.83;1.07;;;;;;;;;;5049656;28;20493;-63
2023/10/15 03:10:11;;;;;;;2.43;1.63;;;;;;;;;;5049031;28;20285;-64
2023/10/15 03:12:43;;;;;;;5.40;1.30;;;;;;;;;;5049631;28;20204;-63
2023/10/15 03:15:11;;;;;;;3.50;0.90;;;;;;;;;;5048888;28;20309;-63
2023/10/15 03:17:40;;;;;;;1.73;0.97;;;;;;;;;;5048461;28;20207;-63
2023/10/15 03:20:23;;;;;;;2.57;1.10;;;;;;;;;;5049216;28;20204;-63
2023/10/15 03:22:52;;;;;;;3.57;1.13;;;;;;;;;;5049417;28;20235;-62
2023/10/15 03:25:20;;;;;;;2.40;1.10;;;;;;;;;;5049335;28;20202;-63
2023/10/15 03:27:47;;;;;;;5.10;1.10;;;;;;;;;;5049242;28;20215;-63
2023/10/15 03:30:14;;;;;;;5.73;1.37;;;;;;;;;;5048952;28;20218;-63
2023/10/15 03:32:44;;;;;;;2.67;0.83;;;;;;;;;;5048598;28;20219;-63
2023/10/15 03:35:17;;;;;;;2.63;0.93;;;;;;;;;;5049089;28;20219;-63
2023/10/15 03:37:47;;;;;;;3.70;1.00;;;;;;;;;;5048940;28;20204;-63
2023/10/15 03:40:29;;;;;;;2.50;0.83;;;;;;;;;;5048522;28;20242;-63
2023/10/15 03:43:01;;;;;;;1.87;1.00;;;;;;;;;;5048368;28;20282;-64
2023/10/15 03:45:29;;;;;;;3.80;1.10;;;;;;;;;;5048467;28;20207;-62
2023/10/15 03:47:57;;;;;;;2.17;1.27;;;;;;;;;;5048848;28;20222;-63
2023/10/15 03:50:29;;;;;;;1.63;1.00;;;;;;;;;;5049024;28;20212;-63
2023/10/15 03:52:57;;;;;;;5.53;1.30;;;;;;;;;;5048456;28;20214;-63
2023/10/15 03:55:24;;;;;;;2.30;0.80;;;;;;;;;;5048504;28;20761;-62
2023/10/15 03:57:53;;;;;;;4.90;1.40;;;;;;;;;;5048512;28;20640;-60
2023/10/15 04:00:35;;;;;;;1.00;1.00;;;;;;;;;;5048065;28;20235;-63
2023/10/15 04:03:07;;;;;;;3.47;1.10;;;;;;;;;;5048292;28;20207;-63
2023/10/15 04:05:36;;;;;;;3.50;1.13;;;;;;;;;;5047769;28;20673;-63
2023/10/15 04:08:03;;;;;;;2.27;1.00;;;;;;;;;;5047977;28;20199;-63
2023/10/15 04:10:34;;;;;;;0.87;0.87;;;;;;;;;;5048495;28;20231;-63
2023/10/15 04:13:01;;;;;;;2.40;1.10;;;;;;;;;;5048079;28;20265;-63
2023/10/15 04:15:30;;;;;;;2.43;0.90;;;;;;;;;;5047704;28;20230;-63
2023/10/15 04:17:57;;;;;;;4.10;1.00;;;;;;;;;;5048132;28;20570;-63
2023/10/15 04:20:27;;;;;;;3.83;1.20;;;;;;;;;;5048665;28;20681;-63
2023/10/15 04:22:56;;;;;;;2.40;1.13;;;;;;;;;;5047569;28;20287;-63
2023/10/15 04:25:26;;;;;;;1.10;1.10;;;;;;;;;;5048436;28;20231;-64
2023/10/15 04:27:54;;;;;;;0.97;0.80;;;;;;;;;;5048064;28;20207;-63
2023/10/15 04:30:22;;;;;;;5.03;1.00;;;;;;;;;;5048113;28;20200;-62
2023/10/15 04:32:50;;;;;;;3.97;0.80;;;;;;;;;;5047269;28;20211;-64
2023/10/15 04:35:18;;;;;;;2.60;1.13;;;;;;;;;;5047872;28;20227;-63
2023/10/15 04:37:46;;;;;;;1.63;0.90;;;;;;;;;;5053008;28;20734;-63
2023/10/15 04:40:22;;;;;;;1.47;0.97;;;;;;;;;;5068215;28;20206;-63
2023/10/15 04:42:49;;;;;;;5.00;1.00;;;;;;;;;;5068056;28;20226;-63
2023/10/15 04:45:23;;;;;;;3.43;0.90;;;;;;;;;;5063831;28;20233;-63
2023/10/15 04:47:53;;;;;;;2.10;0.90;;;;;;;;;;5048126;28;20211;-63
2023/10/15 04:50:21;;;;;;;2.60;1.07;;;;;;;;;;5047705;28;20578;-62
2023/10/15 04:52:48;;;;;;;1.30;0.90;;;;;;;;;;5047546;28;20219;-63
2023/10/15 04:55:17;;;;;;;0.70;0.70;;;;;;;;;;5047752;28;20240;-63
2023/10/15 04:57:45;;;;;;;4.30;0.90;;;;;;;;;;5048004;28;20207;-63
2023/10/15 05:00:15;;;;;;;7.17;1.10;;;;;;;;;;5047633;28;20207;-62
2023/10/15 05:02:42;;;;;;;1.50;0.90;;;;;;;;;;5047312;28;20199;-63
2023/10/15 05:05:11;;;;;;;1.87;1.00;;;;;;;;;;5047762;28;20203;-62
2023/10/15 05:07:38;;;;;;;1.60;0.90;;;;;;;;;;5047688;28;20802;-63
2023/10/15 05:10:06;;;;;;;1.03;0.97;;;;;;;;;;5047602;28;20204;-63
2023/10/15 05:12:34;;;;;;;2.63;1.00;;;;;;;;;;5046888;28;20199;-63
2023/10/15 05:15:01;;;;;;;2.40;1.07;;;;;;;;;;5047779;28;20223;-63
2023/10/15 05:17:31;;;;;;;3.00;1.30;;;;;;;;;;5047859;28;20217;-63
2023/10/15 05:19:58;;;;;;;4.20;0.90;;;;;;;;;;5047644;28;20210;-63
2023/10/15 05:22:25;;;;;;;3.33;1.10;;;;;;;;;;5046909;28;20215;-63
2023/10/15 05:24:53;;;;;;;3.33;1.17;;;;;;;;;;5047988;28;20203;-62
2023/10/15 05:27:20;;;;;;;2.13;1.20;;;;;;;;;;5047409;28;20203;-63
2023/10/15 05:29:48;;;;;;;1.10;1.00;;;;;;;;;;5047257;28;20433;-63
2023/10/15 05:32:15;;;;;;;2.97;1.00;;;;;;;;;;5047474;28;20537;-63
2023/10/15 05:34:42;;;;;;;1.17;1.07;;;;;;;;;;5046381;28;20210;-63
2023/10/15 05:37:09;;;;;;;1.07;0.90;;;;;;;;;;5037288;28;20204;-63
2023/10/15 05:39:37;;;;;;;3.60;1.20;;;;;;;;;;5032151;28;20204;-63
2023/10/15 05:42:07;;;;;;;0.90;0.90;;;;;;;;;;5047671;28;20207;-62
2023/10/15 05:44:35;;;;;;;2.47;1.00;;;;;;;;;;5047433;28;20579;-62
2023/10/15 05:47:03;;;;;;;2.47;0.90;;;;;;;;;;5047426;28;20227;-62
2023/10/15 05:49:30;;;;;;;3.90;1.20;;;;;;;;;;5047801;28;20200;-63
2023/10/15 05:51:58;;;;;;;1.37;1.27;;;;;;;;;;5047695;28;20216;-62
2023/10/15 05:54:26;;;;;;;2.00;1.37;;;;;;;;;;5047111;28;20581;-62
2023/10/15 05:56:53;;;;;;;2.73;1.10;;;;;;;;;;5033901;28;20269;-62
2023/10/15 05:59:20;;;;;;;1.13;1.03;;;;;;;;;;5051763;28;20207;-62
2023/10/15 06:01:47;;;;;;;2.97;1.20;;;;;;;;;;5051273;28;20752;-63
2023/10/15 06:04:17;;;;;;;2.10;1.70;;;;;;;;;;5050780;28;20575;-63
2023/10/15 06:06:44;;;;;;;3.53;1.03;;;;;;;;;;5051587;28;20211;-63
2023/10/15 06:09:12;;;;;;;2.67;1.07;;;;;;;;;;5051240;28;20208;-62
2023/10/15 06:11:39;;;;;;;5.17;1.23;;;;;;;;;;5051026;28;20234;-63
2023/10/15 06:14:06;;;;;;;1.80;1.00;;;;;;;;;;5049954;28;20689;-63
2023/10/15 06:16:33;;;;;;;1.23;1.13;;;;;;;;;;5051162;28;20242;-63
2023/10/15 06:19:00;;;;;;;6.03;1.00;;;;;;;;;;5049037;28;20218;-63
2023/10/15 06:21:28;;;;;;;1.07;1.03;;;;;;;;;;5051152;28;20203;-62
2023/10/15 06:23:55;;;;;;;2.10;0.90;;;;;;;;;;5050633;28;20211;-62
2023/10/15 06:26:22;;;;;;;3.83;1.17;;;;;;;;;;5050749;28;20227;-62
2023/10/15 06:28:49;;;;;;;1.77;0.87;;;;;;;;;;5051031;28;20207;-62
2023/10/15 06:31:16;;;;;;;1.63;1.30;;;;;;;;;;5050421;28;20215;-63
2023/10/15 06:33:44;;;;;;;0.90;0.90;;;;;;;;;;5050697;28;20200;-63
2023/10/15 06:36:11;;;;;;;1.23;1.13;;;;;;;;;;5047010;28;20228;-63
2023/10/15 06:38:39;;;;;;;3.20;1.10;;;;;;;;;;5050043;28;20582;-62
2023/10/15 06:41:10;;;;;;;2.93;1.53;;;;;;;;;;5050331;28;20211;-63
2023/10/15 06:43:37;;;;;;;2.50;1.33;;;;;;;;;;5050193;28;20254;-63
2023/10/15 06:46:08;;;;;;;2.63;1.20;;;;;;;;;;5050540;28;20219;-63
2023/10/15 06:48:37;;;;;;;4.23;1.77;;;;;;;;;;5050741;28;20207;-63
2023/10/15 06:51:06;;;;;;;2.33;1.27;;;;;;;;;;5049664;28;20195;-63
2023/10/15 06:53:33;;;;;;;3.80;1.40;;;;;;;;;;5049489;28;20235;-63
2023/10/15 06:56:06;;;;;;;3.17;1.20;;;;;;;;;;5049697;28;20216;-63
2023/10/15 06:58:33;;;;;;;4.37;1.93;;;;;;;;;;5049762;28;20204;-63
2023/10/15 07:01:02;;;;;;;2.17;1.57;;;;;;;;;;5049743;28;20234;-63
2023/10/15 07:03:29;;;;;;;1.37;1.33;;;;;;;;;;5045511;28;20221;-63
2023/10/15 07:05:56;;;;;;;2.73;1.40;;;;;;;;;;5049709;28;20203;-62
2023/10/15 07:08:23;;;;;;;3.77;1.70;;;;;;;;;;5049530;28;20227;-63
2023/10/15 07:10:50;;;;;;;1.30;1.20;;;;;;;;;;5049114;28;20195;-63
2023/10/15 07:13:19;;;;;;;1.50;1.40;;;;;;;;;;5049589;28;20199;-64
2023/10/15 07:15:46;;;;;;;5.67;1.40;;;;;;;;;;5049824;28;20232;-62
2023/10/15 07:18:13;;;;;;;2.57;1.57;;;;;;;;;;5049645;28;20231;-63
2023/10/15 07:20:40;;;;;;;2.97;1.60;;;;;;;;;;5049794;28;20211;-63
2023/10/15 07:23:07;;;;;;;2.57;1.50;;;;;;;;;;5048891;28;20208;-62
2023/10/15 07:25:34;;;;;;;2.83;1.30;;;;;;;;;;5049621;28;20211;-63
2023/10/15 07:28:02;;;;;;;5.43;1.40;;;;;;;;;;5049602;28;20207;-63
2023/10/15 07:30:32;;;;;;;2.23;1.50;;;;;;;;;;5049246;28;20218;-61
2023/10/15 07:32:59;;;;;;;2.20;1.43;;;;;;;;;;5049302;28;20253;-62
2023/10/15 07:35:26;;;;;;;2.70;1.23;;;;;;;;;;5049170;28;20208;-62
2023/10/15 07:37:53;;;;;;;5.13;1.30;;;;;;;;;;5049264;28;20219;-62
2023/10/15 07:40:22;;;;;;;2.57;1.50;;;;;;;;;;5049344;28;20208;-63
2023/10/15 07:42:50;;;;;;;9.23;3.17;;;;;;;;;;5049331;28;20232;-62
2023/10/15 07:45:18;;;;;;;18.60;5.17;;;;;;;;;;5049272;28;20208;-62
2023/10/15 07:47:46;;;;;;;9.47;3.80;;;;;;;;;;5048993;28;20578;-62
2023/10/15 07:50:16;;;;;;;8.70;2.97;;;;;;;;;;5049169;28;20207;-62
2023/10/15 07:52:44;;;;;;;1.43;1.30;;;;;;;;;;5048866;28;20207;-62
2023/10/15 07:55:11;;;;;;;1.13;1.10;;;;;;;;;;5049228;28;20222;-61
2023/10/15 07:57:38;;;;;;;3.20;1.10;;;;;;;;;;5048812;28;20297;-63
2023/10/15 08:00:06;;;;;;;4.20;1.43;;;;;;;;;;5048879;28;20207;-63
2023/10/15 08:02:35;;;;;;;1.43;1.30;;;;;;;;;;5048751;28;20231;-63
2023/10/15 08:05:03;;;;;;;5.80;1.73;;;;;;;;;;5048840;28;20214;-65
2023/10/15 08:07:30;;;;;;;2.73;1.20;;;;;;;;;;5046807;28;20214;-63
2023/10/15 08:09:57;;;;;;;5.83;1.60;;;;;;;;;;5048876;28;20207;-63
2023/10/15 08:12:27;;;;;;;2.87;1.20;;;;;;;;;;5048588;28;20212;-63
2023/10/15 08:14:57;;;;;;;4.53;1.10;;;;;;;;;;5049057;28;20211;-63
2023/10/15 08:17:24;;;;;;;1.27;1.00;;;;;;;;;;5048487;28;20215;-62
2023/10/15 08:19:52;;;;;;;2.53;1.30;;;;;;;;;;5047470;28;20202;-62
2023/10/15 08:22:20;;;;;;;4.87;1.50;;;;;;;;;;5048709;28;20551;-63
2023/10/15 08:24:47;;;;;;;7.87;2.50;;;;;;;;;;5048582;28;20212;-63
2023/10/15 08:27:14;;;;;;;6.03;2.20;;;;;;;;;;5048520;28;20200;-63
2023/10/15 08:29:41;;;;;;;7.57;2.27;;;;;;;;;;5048310;28;20656;-63
2023/10/15 08:32:13;;;;;;;4.43;2.60;;;;;;;;;;5047942;28;20320;-63
2023/10/15 08:34:41;;;;;;;5.20;1.50;;;;;;;;;;5048654;28;20200;-63
2023/10/15 08:37:10;;;;;;;2.50;1.10;;;;;;;;;;5048378;28;20231;-62
2023/10/15 08:39:39;;;;;;;4.10;1.30;;;;;;;;;;5048431;28;20306;-63
2023/10/15 08:42:11;;;;;;;3.53;1.47;;;;;;;;;;5047758;28;20624;-62
2023/10/15 08:44:40;;;;;;;5.37;1.23;;;;;;;;;;5035314;28;20310;-62
2023/10/15 08:47:10;;;;;;;3.23;1.00;;;;;;;;;;5048421;28;20334;-63
2023/10/15 08:49:37;;;;;;;3.40;1.17;;;;;;;;;;5048327;28;20200;-63
2023/10/15 08:52:06;;;;;;;2.77;1.13;;;;;;;;;;5048415;28;20214;-63
2023/10/15 08:54:38;;;;;;;1.97;1.27;;;;;;;;;;5047777;28;20203;-63
2023/10/15 08:57:08;;;;;;;5.87;1.40;;;;;;;;;;5047651;28;20216;-63
2023/10/15 08:59:35;;;;;;;4.10;1.70;;;;;;;;;;5047606;28;20204;-64
2023/10/15 09:02:03;;;;;;;3.60;1.13;;;;;;;;;;5048080;28;20235;-61
2023/10/15 09:04:31;;;;;;;5.17;1.57;;;;;;;;;;5047189;28;20212;-61
2023/10/15 09:07:01;;;;;;;4.47;1.67;;;;;;;;;;5045230;28;20200;-73
2023/10/15 09:09:28;;;;;;;6.90;1.10;;;;;;;;;;5045779;28;20199;-62
2023/10/15 09:11:56;;;;;;;2.63;1.20;;;;;;;;;;5046994;28;20207;-62
2023/10/15 09:17:20;;;;;;;1.30;1.20;;;;;;;;;;5140379;27;20281;-62
2023/10/15 09:19:47;;;;;;;2.60;1.90;;;;;;;;;;5125974;28;20198;-62
2023/10/15 09:22:15;;;;;;;2.57;0.60;;;;;;;;;;5126113;28;20204;-63
2023/10/15 09:24:42;;;;;;;3.97;2.10;;;;;;;;;;5119047;28;20612;-62
2023/10/15 09:27:09;;;;;;;2.10;1.67;;;;;;;;;;5125472;28;20196;-61
2023/10/15 09:29:36;;;;;;;1.90;1.10;;;;;;;;;;5124084;28;20204;-60
2023/10/15 09:32:04;;;;;;;2.70;1.00;;;;;;;;;;5119942;28;20190;-61
2023/10/15 09:34:33;;;;;;;3.07;0.93;;;;;;;;;;5125512;28;20205;-66
2023/10/15 09:37:00;;;;;;;14.00;1.20;;;;;;;;;;5125354;28;20601;-61
2023/10/15 09:39:28;;;;;;;2.13;0.80;;;;;;;;;;5121213;28;20205;-61
2023/10/15 09:41:56;;;;;;;1.35;0.68;;;;;;;;;;5122527;28;20201;-61
2023/10/15 09:44:23;;;;;;;4.45;1.05;;;;;;;;;;5095110;28;20249;-61
2023/10/15 09:46:50;;;;;;;11.70;1.23;;;;;;;;;;5104441;28;20850;-58
2023/10/15 09:49:18;;;;;;;1.80;0.55;;;;;;;;;;5104762;28;20255;-62
2023/10/15 09:51:48;;;;;;;2.92;0.55;;;;;;;;;;5105146;28;20213;-60
2023/10/15 09:54:19;;;;;;;0.55;0.40;;;;;;;;;;5104725;28;20262;-59
2023/10/15 09:56:47;;;;;;;1.65;0.73;;;;;;;;;;5104491;28;20214;-59
2023/10/15 09:59:15;;;;;;;2.30;0.40;;;;;;;;;;5103842;28;20198;-59
2023/10/15 10:01:44;;;;;;;1.20;0.80;;;;;;;;;;5088596;28;20617;-59
2023/10/15 10:04:40;;;;;;;0.50;0.50;;;;;;;;;;5104560;28;20222;-59
2023/10/15 10:07:19;;;;;;;2.78;1.00;;;;;;;;;;5103715;28;20208;-62
2023/10/15 10:10:09;;;;;;;2.10;0.60;;;;;;;;;;5104210;28;20204;-59
2023/10/15 10:12:44;;;;;;;0.47;0.45;;;;;;;;;;5100825;28;20234;-59
2023/10/15 10:15:17;;;;;;;0.50;0.50;;;;;;;;;;5104155;28;20715;-59
2023/10/15 10:17:44;;;;;;;0.30;0.30;;;;;;;;;;5104571;28;20205;-60
2023/10/15 10:20:14;;;;;;;0.90;0.45;;;;;;;;;;5104542;28;20206;-60
2023/10/15 10:22:42;;;;;;;0.98;0.50;;;;;;;;;;5103333;28;20212;-61
2023/10/15 10:25:11;;;;;;;0.82;0.22;;;;;;;;;;5104665;28;20552;-60
2023/10/15 10:27:47;;;;;;;0.47;0.40;;;;;;;;;;5096414;28;20699;-61
2023/10/15 10:30:24;;;;;;;0.45;0.45;;;;;;;;;;5091271;28;20296;-60
2023/10/15 10:32:51;;;;;;;0.40;0.35;;;;;;;;;;5090004;28;20201;-61
2023/10/15 10:35:20;;;;;;;0.50;0.50;;;;;;;;;;5073887;28;20203;-60
2023/10/15 10:38:05;;;;;;;2.65;0.55;;;;;;;;;;5074405;28;20202;-61
2023/10/15 10:40:49;;;;;;;31.80;6.90;;;;;;;;;;5090193;28;20211;-60
2023/10/15 10:43:16;;;;;;;1.10;0.40;;;;;;;;;;5089082;28;20682;-60
2023/10/15 10:45:56;;;;;;;1.08;0.50;;;;;;;;;;5088810;28;20203;-61
2023/10/15 10:48:24;;;;;;;1.67;0.90;;;;;;;;;;5089769;28;20206;-62
2023/10/15 10:51:06;;;;;;;0.68;0.50;;;;;;;;;;5090291;28;20211;-61
2023/10/15 10:53:34;;;;;;;0.95;0.40;;;;;;;;;;5089720;28;20212;-61
2023/10/15 10:56:04;;;;;;;0.43;0.43;;;;;;;;;;5088277;28;20214;-63
2023/10/15 10:58:34;;;;;;;0.30;0.30;;;;;;;;;;5088670;28;20612;-63
2023/10/15 11:01:04;;;;;;;1.35;0.50;;;;;;;;;;5085974;28;20638;-67
2023/10/15 11:03:31;;;;;;;0.35;0.35;;;;;;;;;;5090090;28;20199;-65
2023/10/15 11:05:59;;;;;;;2.67;0.38;;;;;;;;;;5089571;28;20194;-62
2023/10/15 11:08:26;;;;;;;1.00;0.65;;;;;;;;;;5089769;28;20252;-63
2023/10/15 11:10:59;;;;;;;0.45;0.40;;;;;;;;;;5090113;28;20206;-61
2023/10/15 11:13:26;;;;;;;1.17;0.43;;;;;;;;;;5090065;28;20297;-60
2023/10/15 11:15:53;;;;;;;0.50;0.50;;;;;;;;;;5089493;28;20245;-65
2023/10/15 11:18:23;;;;;;;1.17;0.50;;;;;;;;;;5081739;28;20301;-61
2023/10/15 11:20:52;;;;;;;0.70;0.52;;;;;;;;;;5080826;28;20712;-60
2023/10/15 11:23:23;;;;;;;0.50;0.50;;;;;;;;;;5075853;28;20299;-60
2023/10/15 11:25:51;;;;;;;0.30;0.30;;;;;;;;;;5087418;28;20257;-60
2023/10/15 11:28:20;;;;;;;0.30;0.30;;;;;;;;;;5076388;28;20450;-61
2023/10/15 11:30:47;;;;;;;0.30;0.30;;;;;;;;;;5079493;28;20214;-60
2023/10/15 11:33:17;;;;;;;0.75;0.32;;;;;;;;;;5068817;28;20203;-60
2023/10/15 11:35:45;;;;;;;0.30;0.30;;;;;;;;;;5087360;28;20316;-60
2023/10/15 11:38:12;;;;;;;0.45;0.40;;;;;;;;;;5088339;28;20573;-60
2023/10/15 11:40:40;;;;;;;0.43;0.43;;;;;;;;;;5088196;28;20210;-60
2023/10/15 11:43:12;;;;;;;0.70;0.50;;;;;;;;;;5088664;28;20317;-60
2023/10/15 11:45:41;;;;;;;0.30;0.30;;;;;;;;;;5088865;28;20214;-60
2023/10/15 11:48:11;;;;;;;0.30;0.30;;;;;;;;;;5088178;28;20255;-60
2023/10/15 11:50:40;;;;;;;1.02;0.35;;;;;;;;;;5077885;28;20199;-60
2023/10/15 11:53:07;;;;;;;2.88;0.70;;;;;;;;;;5086332;28;20205;-60
2023/10/15 11:55:37;;;;;;;0.95;0.50;;;;;;;;;;5088601;28;20577;-69
2023/10/15 11:58:10;;;;;;;0.32;0.32;;;;;;;;;;5087989;28;20222;-68
2023/10/15 12:00:39;;;;;;;1.85;0.40;;;;;;;;;;5087686;28;20199;-67
2023/10/15 12:03:09;;;;;;;1.45;0.32;;;;;;;;;;5087631;28;20206;-68
2023/10/15 12:05:37;;;;;;;0.53;0.33;;;;;;;;;;5088634;28;20217;-68
2023/10/15 12:08:04;;;;;;;0.77;0.20;;;;;;;;;;5087874;28;20808;-63
2023/10/15 12:10:32;;;;;;;0.63;0.30;;;;;;;;;;5086571;28;20202;-64
2023/10/15 12:12:59;;;;;;;0.10;0.10;;;;;;;;;;5068460;28;20198;-65
2023/10/15 12:15:30;;;;;;;1.67;0.40;;;;;;;;;;5083854;28;20238;-65
2023/10/15 12:17:57;;;;;;;0.20;0.20;;;;;;;;;;5081723;28;20230;-65
2023/10/15 12:20:26;;;;;;;0.97;0.97;;;;;;;;;;5080944;28;20681;-65
2023/10/15 12:22:54;;;;;;;1.70;1.60;;;;;;;;;;5075190;28;20237;-65
2023/10/15 12:25:21;;;;;;;0.97;0.40;;;;;;;;;;5086632;28;20290;-64
2023/10/15 12:27:48;;;;;;;0.23;0.23;;;;;;;;;;5085562;28;20210;-65
2023/10/15 12:30:23;;;;;;;2.73;1.60;;;;;;;;;;5086361;28;20214;-65
2023/10/15 12:32:54;;;;;;;0.40;0.40;;;;;;;;;;5078726;28;20256;-65
2023/10/15 12:35:22;;;;;;;0.10;0.10;;;;;;;;;;5085757;28;20211;-65
2023/10/15 12:37:58;;;;;;;0.40;0.40;;;;;;;;;;5083026;28;20225;-65
2023/10/15 12:40:30;;;;;;;0.80;0.30;;;;;;;;;;5086282;28;20629;-64
2023/10/15 12:42:57;;;;;;;2.40;1.60;;;;;;;;;;5083017;28;20242;-64
2023/10/15 12:45:24;;;;;;;1.87;0.90;;;;;;;;;;5071561;28;20289;-68
2023/10/15 12:47:51;;;;;;;0.50;0.40;;;;;;;;;;5086086;28;20669;-65
2023/10/15 12:50:18;;;;;;;0.50;0.50;;;;;;;;;;5073170;28;20206;-65
2023/10/15 12:52:46;;;;;;;1.00;0.70;;;;;;;;;;5079363;28;20206;-65
2023/10/15 12:55:17;;;;;;;1.43;0.80;;;;;;;;;;5083130;28;20210;-64
2023/10/15 12:57:46;;;;;;;1.33;1.20;;;;;;;;;;5087325;28;20229;-65
2023/10/15 13:00:17;;;;;;;0.50;0.50;;;;;;;;;;5086062;28;20875;-65
2023/10/15 13:02:45;;;;;;;0.50;0.50;;;;;;;;;;5075801;28;20199;-65
2023/10/15 13:05:13;;;;;;;1.80;0.93;;;;;;;;;;5080764;28;20682;-62
2023/10/15 13:07:40;;;;;;;0.60;0.60;;;;;;;;;;5075006;28;20329;-65
2023/10/15 13:10:09;;;;;;;0.87;0.60;;;;;;;;;;5085887;28;20217;-66
2023/10/15 13:12:38;;;;;;;1.40;0.83;;;;;;;;;;5085014;28;20626;-64
2023/10/15 13:15:07;;;;;;;1.80;0.70;;;;;;;;;;5076669;28;20221;-63
2023/10/15 13:17:34;;;;;;;1.60;0.90;;;;;;;;;;5085865;28;20233;-63
2023/10/15 13:20:06;;;;;;;1.90;0.83;;;;;;;;;;5086838;28;20202;-64
2023/10/15 13:22:33;;;;;;;1.30;0.53;;;;;;;;;;5086890;28;20211;-64
2023/10/15 13:25:00;;;;;;;0.93;0.70;;;;;;;;;;5086984;28;20218;-64
2023/10/15 13:27:27;;;;;;;2.05;0.60;;;;;;;;;;5086871;28;20210;-64
2023/10/15 13:29:56;;;;;;;0.63;0.63;;;;;;;;;;5087515;28;20202;-67
2023/10/15 13:32:23;;;;;;;22.43;9.60;;;;;;;;;;5091756;28;20202;-70
2023/10/15 13:34:50;;;;;;;1.40;1.30;;;;;;;;;;5087522;28;20579;-66
2023/10/15 13:37:17;;;;;;;2.23;2.00;;;;;;;;;;5086753;28;20908;-64
2023/10/15 13:39:45;;;;;;;2.27;1.20;;;;;;;;;;5086746;28;20303;-63
2023/10/15 13:42:12;;;;;;;2.07;1.10;;;;;;;;;;5079553;28;20207;-63
2023/10/15 13:44:39;;;;;;;1.77;1.27;;;;;;;;;;5086621;28;20226;-64
2023/10/15 13:47:08;;;;;;;1.10;1.00;;;;;;;;;;5081949;28;20209;-62
2023/10/15 13:49:35;;;;;;;3.05;1.10;;;;;;;;;;5066747;28;20215;-62
2023/10/15 13:52:03;;;;;;;1.90;1.10;;;;;;;;;;5080197;28;20201;-64
2023/10/15 13:54:30;;;;;;;0.80;0.80;;;;;;;;;;5086922;28;20236;-64
2023/10/15 13:56:58;;;;;;;1.60;1.00;;;;;;;;;;5068783;28;20226;-63
2023/10/15 13:59:25;;;;;;;2.97;0.70;;;;;;;;;;5077994;28;20244;-64
2023/10/15 14:01:56;;;;;;;4.20;0.80;;;;;;;;;;5076074;28;20276;-64
2023/10/15 14:04:27;;;;;;;0.90;0.90;;;;;;;;;;5086616;28;20263;-64
2023/10/15 14:06:54;;;;;;;1.83;0.97;;;;;;;;;;5088434;28;20205;-64
2023/10/15 14:09:23;;;;;;;1.90;0.70;;;;;;;;;;5070851;28;20211;-64
2023/10/15 14:11:50;;;;;;;1.90;0.50;;;;;;;;;;5082135;28;20697;-63
2023/10/15 14:14:17;;;;;;;2.10;0.67;;;;;;;;;;5071417;28;20203;-65
2023/10/15 14:16:45;;;;;;;2.97;1.10;;;;;;;;;;5077262;28;20771;-64
2023/10/15 14:19:13;;;;;;;2.70;2.50;;;;;;;;;;5088255;28;20275;-63
2023/10/15 14:21:43;;;;;;;3.37;1.43;;;;;;;;;;5087378;28;20326;-64
2023/10/15 14:24:12;;;;;;;0.77;0.70;;;;;;;;;;5075118;28;20309;-64
2023/10/15 14:26:39;;;;;;;1.00;0.93;;;;;;;;;;5086266;28;20736;-64
2023/10/15 14:29:07;;;;;;;0.43;0.43;;;;;;;;;;5072629;28;20371;-65
2023/10/15 14:31:34;;;;;;;2.93;0.50;;;;;;;;;;5088104;28;20210;-64
2023/10/15 14:34:04;;;;;;;1.23;0.60;;;;;;;;;;5087366;28;20207;-64
2023/10/15 14:36:36;;;;;;;0.87;0.73;;;;;;;;;;5088094;28;20225;-63
2023/10/15 14:39:05;;;;;;;1.67;0.87;;;;;;;;;;5087434;28;20206;-64
2023/10/15 14:41:34;;;;;;;1.60;1.00;;;;;;;;;;5086225;28;20210;-64
2023/10/15 14:44:01;;;;;;;2.43;0.60;;;;;;;;;;5069587;28;20272;-64
2023/10/15 14:46:28;;;;;;;0.50;0.50;;;;;;;;;;5071240;28;20207;-64
2023/10/15 14:48:55;;;;;;;1.27;0.80;;;;;;;;;;5067601;28;20229;-64
2023/10/15 14:51:23;;;;;;;0.53;0.53;;;;;;;;;;5067556;28;20207;-62
2023/10/15 14:53:50;;;;;;;1.03;0.40;;;;;;;;;;5077800;28;20243;-63
2023/10/15 14:56:18;;;;;;;0.40;0.40;;;;;;;;;;5071496;28;20215;-63
2023/10/15 14:58:45;;;;;;;2.77;0.90;;;;;;;;;;5067061;28;20253;-63